Time;durP1;ratioP1;P1;durP2;ratioP2;P2;SDS_P1;SDS_P2;PMS_P1;PMS_P2;Temp;Humidity;BMP_temperature;BMP_pressure;BME280_temperature;BME280_humidity;BME280_pressure;Samples;Min_cycle;Max_cycle;Signal;HPM_P1;HPM_P2
2022/01/02 00:02:19;;;;;;;21.50;14.27;;;5.70;99.90;;;;;;5069202;28;20017;-80
2022/01/02 00:04:48;;;;;;;21.52;14.55;;;5.70;99.90;;;;;;5060544;28;20020;-80
2022/01/02 00:07:19;;;;;;;21.13;14.98;;;5.70;99.90;;;;;;5068403;28;20032;-78
2022/01/02 00:09:46;;;;;;;21.98;14.35;;;5.70;99.90;;;;;;5056821;28;20028;-76
2022/01/02 00:12:16;;;;;;;18.63;14.90;;;5.70;99.90;;;;;;5060390;28;20538;-78
2022/01/02 00:14:45;;;;;;;21.52;14.32;;;5.70;99.90;;;;;;5031005;28;20021;-74
2022/01/02 00:17:11;;;;;;;18.95;15.23;;;5.70;99.90;;;;;;5052981;28;20039;-74
2022/01/02 00:19:45;;;;;;;22.15;14.38;;;5.70;99.90;;;;;;5053973;28;20021;-74
2022/01/02 00:22:16;;;;;;;18.35;16.27;;;5.70;99.90;;;;;;5053394;28;20029;-73
2022/01/02 00:24:43;;;;;;;18.55;14.27;;;5.70;99.90;;;;;;5050971;28;20074;-74
2022/01/02 00:27:11;;;;;;;17.83;13.30;;;5.70;99.90;;;;;;5035991;28;20551;-73
2022/01/02 00:29:41;;;;;;;21.42;14.55;;;5.70;99.90;;;;;;5035646;28;20033;-74
2022/01/02 00:32:08;;;;;;;18.45;14.30;;;5.70;99.90;;;;;;5054349;28;20071;-74
2022/01/02 00:34:35;;;;;;;20.27;14.18;;;5.70;99.90;;;;;;5052092;28;20037;-75
2022/01/02 00:37:01;;;;;;;21.83;14.85;;;5.70;99.90;;;;;;5053239;28;20025;-74
2022/01/02 00:39:27;;;;;;;18.83;13.38;;;5.70;99.90;;;;;;5045007;28;20036;-75
2022/01/02 00:41:56;;;;;;;15.77;12.10;;;5.70;99.90;;;;;;5036354;28;20021;-75
2022/01/02 00:44:47;;;;;;;17.55;13.30;;;5.70;99.90;;;;;;5048846;28;20032;-74
2022/01/02 00:47:22;;;;;;;16.85;12.48;;;5.70;99.90;;;;;;5051599;28;20518;-75
2022/01/02 00:50:10;;;;;;;18.55;14.52;;;5.60;99.90;;;;;;5050444;28;20101;-74
2022/01/02 00:52:41;;;;;;;19.13;13.35;;;5.60;99.90;;;;;;5050398;28;20047;-75
2022/01/02 00:55:09;;;;;;;19.73;13.63;;;5.60;99.90;;;;;;5053135;28;20052;-74
2022/01/02 00:57:37;;;;;;;18.25;12.65;;;5.60;99.90;;;;;;5048935;28;20086;-75
2022/01/02 01:00:17;;;;;;;18.55;12.45;;;5.60;99.90;;;;;;5045902;28;20386;-75
2022/01/02 01:02:49;;;;;;;17.27;13.88;;;5.60;99.90;;;;;;5047899;28;20018;-75
2022/01/02 01:05:27;;;;;;;16.58;13.35;;;5.50;99.90;;;;;;5049451;28;20029;-74
2022/01/02 01:07:55;;;;;;;19.63;13.40;;;5.50;99.90;;;;;;5033169;28;20098;-74
2022/01/02 01:10:22;;;;;;;17.40;13.35;;;5.40;99.90;;;;;;5048389;28;20029;-75
2022/01/02 01:12:52;;;;;;;17.17;12.57;;;5.40;99.90;;;;;;5051890;28;20066;-74
2022/01/02 01:15:18;;;;;;;17.40;13.05;;;5.40;99.90;;;;;;5049549;28;20043;-75
2022/01/02 01:17:45;;;;;;;16.17;13.00;;;5.50;99.90;;;;;;5053217;28;20033;-75
2022/01/02 01:20:14;;;;;;;15.88;12.73;;;5.40;99.90;;;;;;5032914;28;20018;-74
2022/01/02 01:22:48;;;;;;;17.38;13.23;;;5.40;99.90;;;;;;5052205;28;20466;-75
2022/01/02 01:25:16;;;;;;;15.13;12.13;;;5.40;99.90;;;;;;5051515;28;20514;-75
2022/01/02 01:27:44;;;;;;;19.55;12.48;;;5.50;99.90;;;;;;5053705;28;20029;-74
2022/01/02 01:30:10;;;;;;;19.17;13.23;;;5.40;99.90;;;;;;5060611;28;20033;-75
2022/01/02 01:32:36;;;;;;;16.50;13.45;;;5.50;99.90;;;;;;5048146;28;20029;-74
2022/01/02 01:35:02;;;;;;;18.13;12.85;;;5.50;99.90;;;;;;5049581;28;20030;-73
2022/01/02 01:37:29;;;;;;;15.68;12.30;;;5.40;99.90;;;;;;5063986;28;20084;-75
2022/01/02 01:39:54;;;;;;;16.85;13.23;;;5.30;99.90;;;;;;5058239;28;20547;-75
2022/01/02 01:42:31;;;;;;;20.83;15.00;;;5.30;99.90;;;;;;5051430;28;20029;-73
2022/01/02 01:47:29;;;;;;;15.85;12.50;;;5.30;99.90;;;;;;5046935;28;20027;-74
2022/01/02 01:49:55;;;;;;;15.57;12.65;;;5.20;99.90;;;;;;5043775;28;20420;-75
2022/01/02 01:52:20;;;;;;;15.73;11.68;;;5.20;99.90;;;;;;5053448;28;20036;-74
2022/01/02 01:54:46;;;;;;;15.88;12.93;;;5.10;99.90;;;;;;5056820;28;20039;-75
2022/01/02 01:57:12;;;;;;;19.33;13.52;;;5.10;99.90;;;;;;5051790;28;20033;-75
2022/01/02 01:59:37;;;;;;;16.85;13.15;;;5.10;99.90;;;;;;5032211;28;20017;-74
2022/01/02 02:02:03;;;;;;;18.58;13.68;;;5.10;99.90;;;;;;5048312;28;20033;-75
2022/01/02 02:04:29;;;;;;;20.05;13.45;;;5.10;99.90;;;;;;5050375;28;20220;-75
2022/01/02 02:06:56;;;;;;;16.75;13.15;;;5.00;99.90;;;;;;5051700;28;20109;-75
2022/01/02 02:09:26;;;;;;;17.08;12.82;;;5.00;99.90;;;;;;5051795;28;20044;-74
2022/01/02 02:11:57;;;;;;;18.15;13.05;;;5.00;99.90;;;;;;5049040;28;20025;-74
2022/01/02 02:14:22;;;;;;;17.52;13.38;;;5.00;99.90;;;;;;5032359;28;20120;-75
2022/01/02 02:16:48;;;;;;;15.07;11.90;;;4.90;99.90;;;;;;5047286;28;20073;-75
2022/01/02 02:19:13;;;;;;;17.40;13.02;;;5.00;99.90;;;;;;5049113;28;20055;-74
2022/01/02 02:21:39;;;;;;;16.17;12.52;;;5.00;99.90;;;;;;5047457;28;20025;-75
2022/01/02 02:24:06;;;;;;;15.40;11.98;;;5.00;99.90;;;;;;5049110;28;20140;-74
2022/01/02 02:26:36;;;;;;;16.52;12.95;;;4.90;99.90;;;;;;5051073;28;20021;-75
2022/01/02 02:29:04;;;;;;;15.95;12.00;;;4.90;99.90;;;;;;5058900;28;20036;-73
2022/01/02 02:31:30;;;;;;;19.23;11.93;;;4.90;99.90;;;;;;5036352;28;20603;-74
2022/01/02 02:33:56;;;;;;;15.25;11.63;;;4.80;99.90;;;;;;5052245;28;20021;-73
2022/01/02 02:36:21;;;;;;;18.23;12.02;;;4.80;99.90;;;;;;5051674;28;20035;-74
2022/01/02 02:38:47;;;;;;;15.73;12.40;;;4.80;99.90;;;;;;5051255;28;20025;-74
2022/01/02 02:41:13;;;;;;;14.80;12.05;;;4.70;99.90;;;;;;5037437;28;20124;-73
2022/01/02 02:43:54;;;;;;;16.05;12.55;;;4.70;99.90;;;;;;5039235;28;20068;-74
2022/01/02 02:49:05;;;;;;;13.52;11.45;;;4.70;99.90;;;;;;5048824;28;20104;-74
2022/01/02 02:51:45;;;;;;;14.27;10.82;;;4.70;99.90;;;;;;5050151;28;20488;-74
2022/01/02 02:54:17;;;;;;;17.10;13.67;;;4.70;99.90;;;;;;5031785;28;20037;-74
2022/01/02 02:56:53;;;;;;;15.88;12.20;;;4.60;99.90;;;;;;5050428;28;20036;-74
2022/01/02 02:59:18;;;;;;;16.45;12.25;;;4.50;99.90;;;;;;5047115;28;20108;-74
2022/01/02 03:01:44;;;;;;;14.50;11.65;;;4.50;99.90;;;;;;5050410;28;20052;-74
2022/01/02 03:04:10;;;;;;;15.60;12.15;;;4.60;99.90;;;;;;5050678;28;20029;-74
2022/01/02 03:06:35;;;;;;;12.23;10.43;;;4.60;99.90;;;;;;5050376;28;20372;-74
2022/01/02 03:09:07;;;;;;;14.88;11.75;;;4.60;99.90;;;;;;5054804;28;20032;-74
2022/01/02 03:11:33;;;;;;;12.70;10.73;;;4.60;99.90;;;;;;5052880;28;20025;-74
2022/01/02 03:13:59;;;;;;;13.20;10.13;;;4.60;99.90;;;;;;5054657;28;20082;-74
2022/01/02 03:16:25;;;;;;;14.93;11.55;;;4.60;99.90;;;;;;5054944;28;20418;-74
2022/01/02 03:18:50;;;;;;;12.32;10.73;;;4.50;99.90;;;;;;5052823;28;20087;-74
2022/01/02 03:21:16;;;;;;;11.82;10.40;;;4.60;99.90;;;;;;5047656;28;20485;-73
2022/01/02 03:23:41;;;;;;;13.23;11.25;;;4.60;99.90;;;;;;5054519;28;20025;-74
2022/01/02 03:26:07;;;;;;;15.23;10.90;;;4.60;99.90;;;;;;5051001;28;20104;-74
2022/01/02 03:28:33;;;;;;;13.82;10.30;;;4.60;99.90;;;;;;5050628;28;20061;-73
2022/01/02 03:30:59;;;;;;;11.90;10.45;;;4.60;99.90;;;;;;5051559;28;20053;-72
2022/01/02 03:33:24;;;;;;;12.50;10.18;;;4.70;99.90;;;;;;5056578;28;20620;-74
2022/01/02 03:35:50;;;;;;;11.45;9.95;;;4.70;99.90;;;;;;5051912;28;20036;-73
2022/01/02 03:38:16;;;;;;;13.15;10.98;;;4.70;99.90;;;;;;5055830;28;20033;-74
2022/01/02 03:40:42;;;;;;;15.35;11.35;;;4.70;99.90;;;;;;5053970;28;20384;-74
2022/01/02 03:43:07;;;;;;;12.50;10.10;;;4.60;99.90;;;;;;5053624;28;20100;-74
2022/01/02 03:45:33;;;;;;;10.68;9.43;;;4.70;99.90;;;;;;5052738;28;20144;-74
2022/01/02 03:47:59;;;;;;;13.23;10.82;;;4.60;99.90;;;;;;5054565;28;20400;-74
2022/01/02 03:50:25;;;;;;;13.07;9.60;;;4.50;99.90;;;;;;5032903;28;20645;-74
2022/01/02 03:52:50;;;;;;;16.02;11.00;;;4.60;99.90;;;;;;5048784;28;20020;-74
2022/01/02 03:55:16;;;;;;;15.00;10.55;;;4.60;99.90;;;;;;5050798;28;20472;-74
2022/01/02 03:57:42;;;;;;;12.07;10.02;;;4.50;99.90;;;;;;5054054;28;20365;-74
2022/01/02 04:00:10;;;;;;;10.45;9.13;;;4.50;99.90;;;;;;5030437;28;20040;-74
2022/01/02 04:02:37;;;;;;;12.43;10.13;;;4.60;99.90;;;;;;5055567;28;20110;-74
2022/01/02 04:05:06;;;;;;;11.48;8.82;;;4.60;99.90;;;;;;5053917;28;20021;-74
2022/01/02 04:07:32;;;;;;;11.57;9.93;;;4.60;99.90;;;;;;5054063;28;20036;-74
2022/01/02 04:10:01;;;;;;;10.10;9.05;;;4.60;99.90;;;;;;5035922;28;20059;-74
2022/01/02 04:12:27;;;;;;;12.48;9.55;;;4.60;99.90;;;;;;5043831;28;20440;-74
2022/01/02 04:14:52;;;;;;;11.57;9.10;;;4.60;99.90;;;;;;5031793;28;20033;-74
2022/01/02 04:17:18;;;;;;;11.35;9.18;;;4.50;99.90;;;;;;5053509;28;20021;-74
2022/01/02 04:19:43;;;;;;;11.70;8.63;;;4.60;99.90;;;;;;5050425;28;20416;-74
2022/01/02 04:22:09;;;;;;;12.18;9.43;;;4.50;99.90;;;;;;5048793;28;20017;-74
2022/01/02 04:24:35;;;;;;;11.07;8.50;;;4.50;99.90;;;;;;5047500;28;20033;-74
2022/01/02 04:27:00;;;;;;;12.82;8.57;;;4.40;99.90;;;;;;5052893;28;20124;-74
2022/01/02 04:29:26;;;;;;;11.90;10.70;;;4.40;99.90;;;;;;5054314;28;20032;-73
2022/01/02 04:31:51;;;;;;;13.02;9.23;;;4.50;99.90;;;;;;5063651;28;20063;-73
2022/01/02 04:34:17;;;;;;;11.73;8.93;;;4.50;99.90;;;;;;5071033;28;20077;-72
2022/01/02 04:36:42;;;;;;;10.98;9.52;;;4.50;99.90;;;;;;5073243;28;20078;-73
2022/01/02 04:39:08;;;;;;;13.48;9.20;;;4.40;99.90;;;;;;5062658;28;20032;-73
2022/01/02 04:41:33;;;;;;;10.35;8.77;;;4.40;99.90;;;;;;5054807;28;20153;-73
2022/01/02 04:43:59;;;;;;;12.18;9.30;;;4.50;99.90;;;;;;5053460;28;20025;-73
2022/01/02 04:46:25;;;;;;;11.88;9.85;;;4.50;99.90;;;;;;5053370;28;20020;-73
2022/01/02 04:48:50;;;;;;;11.27;8.63;;;4.50;99.90;;;;;;5049766;28;20025;-73
2022/01/02 04:51:16;;;;;;;11.23;10.10;;;4.60;99.90;;;;;;5053486;28;20063;-72
2022/01/02 04:53:47;;;;;;;12.07;9.50;;;4.60;99.90;;;;;;5050600;28;20397;-73
2022/01/02 04:56:13;;;;;;;12.80;9.52;;;4.60;99.90;;;;;;5052558;28;20025;-73
2022/01/02 04:58:38;;;;;;;13.85;11.63;;;4.60;99.90;;;;;;5051822;28;20029;-73
2022/01/02 05:01:07;;;;;;;10.52;8.93;;;4.60;99.90;;;;;;5049684;28;20027;-73
2022/01/02 05:03:33;;;;;;;10.55;9.27;;;4.70;99.90;;;;;;5046471;28;20036;-73
2022/01/02 05:05:59;;;;;;;10.50;8.70;;;4.70;99.90;;;;;;5052049;28;20037;-73
2022/01/02 05:08:24;;;;;;;9.60;8.52;;;4.70;99.90;;;;;;5053211;28;20024;-73
2022/01/02 05:10:50;;;;;;;11.00;8.70;;;4.70;99.90;;;;;;5051429;28;20029;-74
2022/01/02 05:13:16;;;;;;;11.15;8.98;;;4.80;99.90;;;;;;5047556;28;20512;-74
2022/01/02 05:15:41;;;;;;;10.02;9.07;;;4.70;99.90;;;;;;5052294;28;20082;-73
2022/01/02 05:18:07;;;;;;;8.75;7.75;;;4.70;99.90;;;;;;5052087;28;20477;-74
2022/01/02 05:20:32;;;;;;;10.43;8.82;;;4.70;99.90;;;;;;5049521;28;20036;-74
2022/01/02 05:22:58;;;;;;;12.20;8.52;;;4.60;99.90;;;;;;5049814;28;20470;-74
2022/01/02 05:25:24;;;;;;;11.90;9.60;;;4.70;99.90;;;;;;5051782;28;20048;-74
2022/01/02 05:27:49;;;;;;;10.05;8.18;;;4.60;99.90;;;;;;5051585;28;20091;-74
2022/01/02 05:30:15;;;;;;;9.82;8.20;;;4.60;99.90;;;;;;5048250;28;20091;-74
2022/01/02 05:32:40;;;;;;;12.15;8.82;;;4.70;99.90;;;;;;5047682;28;20040;-73
2022/01/02 05:35:06;;;;;;;9.85;8.85;;;4.60;99.90;;;;;;5053383;28;20033;-74
2022/01/02 05:37:31;;;;;;;9.88;8.88;;;4.70;99.90;;;;;;5050312;28;20021;-74
2022/01/02 05:39:57;;;;;;;8.75;7.95;;;4.70;99.90;;;;;;5051700;28;20020;-74
2022/01/02 05:42:22;;;;;;;13.65;8.75;;;4.80;99.90;;;;;;5048167;28;20069;-74
2022/01/02 05:44:48;;;;;;;9.88;8.68;;;4.80;99.90;;;;;;5051878;28;20090;-75
2022/01/02 05:47:14;;;;;;;9.65;8.65;;;4.80;99.90;;;;;;5051420;28;20626;-74
2022/01/02 05:49:39;;;;;;;9.55;8.10;;;4.90;99.90;;;;;;5051485;28;20547;-74
2022/01/02 05:52:05;;;;;;;8.80;7.90;;;4.90;99.90;;;;;;5048849;28;20096;-73
2022/01/02 05:54:30;;;;;;;9.02;8.13;;;5.00;99.90;;;;;;5045354;28;20484;-74
2022/01/02 05:56:56;;;;;;;7.40;6.65;;;5.10;99.90;;;;;;5050953;28;20081;-74
2022/01/02 05:59:21;;;;;;;7.82;7.03;;;5.30;99.90;;;;;;5050957;28;20107;-73
2022/01/02 06:01:47;;;;;;;9.07;8.18;;;5.30;99.90;;;;;;5029973;28;20171;-73
2022/01/02 06:04:12;;;;;;;7.90;6.82;;;5.40;99.90;;;;;;5044763;28;20033;-73
2022/01/02 06:06:38;;;;;;;9.43;7.47;;;5.50;99.90;;;;;;5051088;28;20091;-73
2022/01/02 06:09:03;;;;;;;7.70;6.90;;;5.60;99.90;;;;;;5050918;28;20058;-73
2022/01/02 06:11:30;;;;;;;7.15;6.45;;;5.50;99.90;;;;;;5047969;28;20388;-74
2022/01/02 06:13:56;;;;;;;8.63;7.82;;;5.50;99.90;;;;;;5047753;28;20058;-73
2022/01/02 06:16:22;;;;;;;7.43;6.70;;;5.60;99.90;;;;;;5044129;28;20028;-74
2022/01/02 06:18:47;;;;;;;9.05;7.45;;;5.60;99.90;;;;;;5045582;28;20025;-73
2022/01/02 06:21:13;;;;;;;8.00;6.93;;;5.60;99.90;;;;;;5049779;28;20037;-74
2022/01/02 06:23:38;;;;;;;7.95;6.43;;;5.60;99.90;;;;;;5049025;28;20078;-73
2022/01/02 06:26:04;;;;;;;7.60;6.85;;;5.60;99.90;;;;;;5047643;28;20524;-73
2022/01/02 06:28:29;;;;;;;7.90;7.05;;;5.50;99.90;;;;;;5031844;28;20373;-74
2022/01/02 06:30:55;;;;;;;7.15;6.55;;;5.50;99.90;;;;;;5029373;28;20060;-74
2022/01/02 06:33:21;;;;;;;8.15;6.35;;;5.50;99.90;;;;;;5046343;28;20055;-74
2022/01/02 06:35:46;;;;;;;8.00;7.20;;;5.40;99.90;;;;;;5046315;28;20089;-73
2022/01/02 06:38:18;;;;;;;9.20;7.68;;;5.40;99.90;;;;;;5048362;28;20021;-73
2022/01/02 06:40:43;;;;;;;9.60;7.35;;;5.30;99.90;;;;;;5038323;28;20056;-74
2022/01/02 06:43:10;;;;;;;8.95;7.07;;;5.30;99.90;;;;;;5028569;28;20048;-74
2022/01/02 06:45:36;;;;;;;7.88;7.07;;;5.30;99.90;;;;;;5031917;28;20388;-74
2022/01/02 06:48:03;;;;;;;9.25;8.25;;;5.30;99.90;;;;;;5050277;28;20039;-74
2022/01/02 06:50:29;;;;;;;8.15;6.43;;;5.20;99.90;;;;;;5050219;28;20085;-73
2022/01/02 06:52:54;;;;;;;9.07;7.40;;;5.20;99.90;;;;;;5032332;28;20025;-76
2022/01/02 06:55:20;;;;;;;7.78;6.97;;;5.20;99.90;;;;;;5046001;28;20036;-74
2022/01/02 06:57:45;;;;;;;7.97;6.32;;;5.20;99.90;;;;;;5032801;28;20036;-74
2022/01/02 07:00:11;;;;;;;7.28;6.47;;;5.30;99.90;;;;;;5048461;28;20024;-74
2022/01/02 07:02:37;;;;;;;8.10;7.30;;;5.30;99.90;;;;;;5027322;28;20025;-73
2022/01/02 07:05:03;;;;;;;8.18;6.43;;;5.30;99.90;;;;;;5043194;28;20412;-73
2022/01/02 07:07:29;;;;;;;7.78;7.07;;;5.30;99.90;;;;;;5050292;28;20052;-73
2022/01/02 07:09:55;;;;;;;8.57;7.00;;;5.30;99.90;;;;;;5047583;28;20048;-73
2022/01/02 07:12:21;;;;;;;7.05;6.35;;;5.20;99.90;;;;;;5049528;28;20488;-73
2022/01/02 07:14:46;;;;;;;7.07;6.45;;;5.20;99.90;;;;;;5049664;28;20735;-74
2022/01/02 07:17:12;;;;;;;7.93;6.63;;;5.20;99.90;;;;;;5050801;28;20022;-74
2022/01/02 07:19:37;;;;;;;7.28;6.55;;;5.20;99.90;;;;;;5051273;28;20033;-74
2022/01/02 07:22:05;;;;;;;6.80;5.85;;;5.10;99.90;;;;;;5049336;28;20033;-74
2022/01/02 07:24:30;;;;;;;7.47;6.68;;;5.20;99.90;;;;;;5050969;28;20019;-76
2022/01/02 07:26:56;;;;;;;6.60;6.00;;;5.10;99.90;;;;;;5052438;28;20449;-74
2022/01/02 07:29:21;;;;;;;7.20;6.18;;;5.10;99.90;;;;;;5044677;28;20033;-74
2022/01/02 07:31:47;;;;;;;8.18;7.38;;;5.10;99.90;;;;;;5032210;28;20052;-74
2022/01/02 07:34:13;;;;;;;7.53;6.35;;;5.20;99.90;;;;;;5050824;28;20128;-74
2022/01/02 07:36:43;;;;;;;6.07;5.50;;;5.20;99.90;;;;;;5049953;28;20108;-74
2022/01/02 07:39:08;;;;;;;6.67;5.93;;;5.10;99.90;;;;;;5048107;28;20440;-75
2022/01/02 07:41:34;;;;;;;9.05;7.20;;;5.20;99.90;;;;;;5031952;28;20021;-74
2022/01/02 07:44:03;;;;;;;8.25;7.07;;;5.30;99.90;;;;;;5029027;28;20374;-74
2022/01/02 07:46:30;;;;;;;10.27;6.22;;;5.20;99.90;;;;;;5053270;28;20496;-74
2022/01/02 07:48:56;;;;;;;7.47;6.72;;;5.20;99.90;;;;;;5063530;28;20033;-72
2022/01/02 07:51:21;;;;;;;7.05;5.72;;;5.20;99.90;;;;;;5059627;28;20037;-74
2022/01/02 07:53:47;;;;;;;7.60;6.80;;;5.20;99.90;;;;;;5055916;28;20512;-74
2022/01/02 07:56:13;;;;;;;6.20;5.55;;;5.20;99.90;;;;;;5057376;28;20059;-74
2022/01/02 07:58:38;;;;;;;8.45;6.38;;;5.30;99.90;;;;;;5037895;28;20029;-74
2022/01/02 08:01:04;;;;;;;6.82;5.90;;;5.30;99.90;;;;;;5056852;28;20078;-74
2022/01/02 08:03:29;;;;;;;8.98;6.65;;;5.40;99.90;;;;;;5048494;28;20135;-74
2022/01/02 08:05:55;;;;;;;7.72;6.40;;;5.40;99.90;;;;;;5055904;28;20120;-74
2022/01/02 08:08:20;;;;;;;6.22;5.63;;;5.50;99.90;;;;;;5069608;28;20052;-74
2022/01/02 08:10:46;;;;;;;8.43;6.03;;;5.60;99.90;;;;;;5053550;28;20024;-73
2022/01/02 08:13:11;;;;;;;6.90;5.70;;;5.70;99.90;;;;;;5063636;28;20447;-75
2022/01/02 08:15:37;;;;;;;6.45;5.85;;;5.70;99.90;;;;;;5058500;28;20045;-73
2022/01/02 08:18:02;;;;;;;6.35;5.53;;;5.70;99.90;;;;;;5058165;28;20025;-73
2022/01/02 08:20:28;;;;;;;6.85;6.10;;;5.70;99.90;;;;;;5058392;28;20025;-73
2022/01/02 08:22:56;;;;;;;7.68;6.32;;;5.80;99.90;;;;;;5058955;28;20491;-74
2022/01/02 08:25:21;;;;;;;6.50;5.88;;;5.90;99.90;;;;;;5056845;28;20029;-73
2022/01/02 08:27:47;;;;;;;7.18;6.10;;;6.00;99.90;;;;;;5055011;28;20040;-73
2022/01/02 08:30:13;;;;;;;6.63;5.88;;;6.10;99.90;;;;;;5056547;28;20056;-73
2022/01/02 08:32:38;;;;;;;6.72;6.13;;;6.20;99.90;;;;;;5056101;28;20025;-74
2022/01/02 08:35:05;;;;;;;7.53;6.22;;;6.20;99.90;;;;;;5056109;28;20117;-73
2022/01/02 08:37:32;;;;;;;6.45;5.68;;;6.30;99.90;;;;;;5061342;28;20021;-74
2022/01/02 08:39:57;;;;;;;6.07;5.53;;;6.40;99.90;;;;;;5059525;28;20081;-74
2022/01/02 08:42:23;;;;;;;7.97;5.65;;;6.70;99.90;;;;;;5060298;28;20048;-74
2022/01/02 08:44:48;;;;;;;13.68;5.85;;;6.90;99.90;;;;;;5063168;28;20035;-73
2022/01/02 08:47:14;;;;;;;5.70;4.85;;;7.10;99.90;;;;;;5062826;28;20037;-74
2022/01/02 08:49:40;;;;;;;6.47;5.32;;;7.30;99.90;;;;;;5044870;28;20075;-74
2022/01/02 08:52:05;;;;;;;5.88;4.93;;;7.40;99.90;;;;;;5063595;28;20032;-73
2022/01/02 08:54:31;;;;;;;6.15;5.50;;;7.60;99.90;;;;;;5062138;28;20345;-74
2022/01/02 08:56:56;;;;;;;6.38;5.65;;;7.70;99.90;;;;;;5060568;28;20037;-73
2022/01/02 08:59:27;;;;;;;6.05;5.45;;;7.80;99.90;;;;;;5059959;28;20028;-74
2022/01/02 09:01:52;;;;;;;6.20;5.13;;;7.90;99.90;;;;;;5043710;28;20021;-74
2022/01/02 09:04:18;;;;;;;6.15;5.25;;;7.90;99.90;;;;;;5056194;28;20025;-73
2022/01/02 09:06:43;;;;;;;5.85;4.82;;;7.90;99.90;;;;;;5051323;28;20032;-74
2022/01/02 09:09:09;;;;;;;6.68;5.60;;;7.60;99.90;;;;;;5053568;28;20061;-74
2022/01/02 09:11:35;;;;;;;6.07;5.10;;;7.50;99.90;;;;;;5031363;28;20021;-74
2022/01/02 09:14:02;;;;;;;6.68;6.05;;;7.50;99.90;;;;;;5050429;28;20029;-74
2022/01/02 09:16:28;;;;;;;6.03;5.43;;;8.00;99.90;;;;;;5034082;28;20017;-75
2022/01/02 09:18:55;;;;;;;6.15;5.25;;;8.00;99.90;;;;;;5050603;28;20029;-75
2022/01/02 09:21:21;;;;;;;6.72;5.13;;;8.00;99.90;;;;;;5052609;28;20076;-74
2022/01/02 09:23:46;;;;;;;5.90;5.30;;;8.20;99.90;;;;;;5051400;28;20029;-74
2022/01/02 09:26:12;;;;;;;8.32;6.40;;;8.40;99.90;;;;;;5052767;28;20021;-75
2022/01/02 09:28:38;;;;;;;6.97;5.18;;;8.40;99.90;;;;;;5034590;28;20024;-75
2022/01/02 09:31:04;;;;;;;5.45;4.90;;;8.20;99.90;;;;;;5050289;28;20039;-73
2022/01/02 09:33:29;;;;;;;5.85;5.25;;;8.20;99.90;;;;;;5052511;28;20025;-73
2022/01/02 09:35:55;;;;;;;6.07;5.07;;;8.20;99.90;;;;;;5046643;28;20052;-75
2022/01/02 09:38:21;;;;;;;6.38;5.50;;;8.30;99.90;;;;;;5026974;28;20061;-74
2022/01/02 09:40:46;;;;;;;6.88;5.82;;;8.30;99.90;;;;;;5050966;28;20029;-75
2022/01/02 09:43:12;;;;;;;7.00;6.05;;;8.20;99.90;;;;;;5051683;28;20033;-75
2022/01/02 09:45:38;;;;;;;6.32;5.63;;;8.20;99.90;;;;;;5052774;28;20083;-74
2022/01/02 09:48:05;;;;;;;7.07;5.65;;;8.20;99.90;;;;;;5051859;28;20032;-75
2022/01/02 09:50:32;;;;;;;7.10;6.40;;;8.20;99.90;;;;;;5035519;28;20435;-74
2022/01/02 09:52:58;;;;;;;6.53;5.18;;;8.20;99.90;;;;;;5062168;28;20021;-73
2022/01/02 09:55:24;;;;;;;7.82;6.07;;;8.50;99.90;;;;;;5043486;28;20036;-75
2022/01/02 09:57:53;;;;;;;6.13;5.22;;;8.60;99.90;;;;;;5036994;28;20508;-74
2022/01/02 10:00:20;;;;;;;6.55;5.97;;;8.80;99.90;;;;;;5043870;28;20090;-74
2022/01/02 10:03:07;;;;;;;6.43;5.78;;;9.10;99.90;;;;;;5042626;28;20086;-75
2022/01/02 10:05:56;;;;;;;7.82;6.18;;;9.10;99.90;;;;;;5045900;28;20063;-74
2022/01/02 10:08:27;;;;;;;5.53;5.03;;;9.00;99.90;;;;;;5048905;28;20395;-75
2022/01/02 10:11:00;;;;;;;6.75;6.07;;;9.00;99.90;;;;;;5052407;28;20025;-74
2022/01/02 10:13:36;;;;;;;7.32;5.85;;;9.10;99.90;;;;;;5051442;28;20032;-75
2022/01/02 10:16:02;;;;;;;6.10;5.38;;;9.00;99.90;;;;;;5046832;28;20108;-74
2022/01/02 10:18:27;;;;;;;6.43;5.68;;;8.90;99.90;;;;;;5048367;28;20443;-75
2022/01/02 10:20:58;;;;;;;7.47;5.85;;;9.00;99.90;;;;;;5052281;28;20401;-74
2022/01/02 10:23:24;;;;;;;8.05;6.53;;;9.10;99.90;;;;;;5053186;28;20033;-76
2022/01/02 10:25:50;;;;;;;7.13;6.40;;;8.90;99.90;;;;;;5048966;28;20037;-76
2022/01/02 10:28:46;;;;;;;6.25;5.60;;;8.80;99.90;;;;;;5047651;28;20128;-75
2022/01/02 10:31:15;;;;;;;8.20;6.75;;;8.70;99.90;;;;;;5045342;28;20041;-74
2022/01/02 10:33:59;;;;;;;8.02;7.20;;;8.80;99.90;;;;;;5052201;28;20055;-75
2022/01/02 10:36:31;;;;;;;8.00;6.50;;;8.80;99.90;;;;;;5032943;28;20092;-74
2022/01/02 10:39:00;;;;;;;7.47;6.00;;;8.80;99.90;;;;;;5041123;28;20497;-75
2022/01/02 10:41:34;;;;;;;5.85;5.35;;;8.80;99.90;;;;;;5051668;28;20053;-75
2022/01/02 10:44:26;;;;;;;7.38;6.13;;;9.00;99.90;;;;;;5049217;28;20021;-73
2022/01/02 10:47:15;;;;;;;7.15;5.78;;;9.00;99.90;;;;;;5051651;28;20096;-73
2022/01/02 10:50:03;;;;;;;6.07;5.32;;;8.70;99.90;;;;;;5050905;22;20078;-72
2022/01/02 10:52:35;;;;;;;6.60;5.88;;;8.70;99.90;;;;;;5028663;28;20113;-73
2022/01/02 10:55:16;;;;;;;6.88;6.18;;;8.60;99.90;;;;;;5033278;28;20029;-74
2022/01/02 10:57:42;;;;;;;9.25;7.03;;;8.60;99.90;;;;;;5026645;28;20014;-71
2022/01/02 11:00:10;;;;;;;7.35;6.40;;;8.70;99.90;;;;;;5020203;28;20030;-71
2022/01/02 11:02:35;;;;;;;7.25;6.45;;;8.90;99.90;;;;;;5053774;28;20058;-71
2022/01/02 11:05:07;;;;;;;6.38;5.70;;;8.90;99.90;;;;;;5047932;28;20535;-71
2022/01/02 11:07:48;;;;;;;6.97;6.30;;;8.90;99.90;;;;;;5043987;28;20014;-73
2022/01/02 11:10:19;;;;;;;9.32;6.60;;;8.90;99.90;;;;;;5045785;28;20056;-72
2022/01/02 11:12:47;;;;;;;6.38;5.78;;;8.90;99.90;;;;;;5037487;28;20056;-73
2022/01/02 11:15:16;;;;;;;7.18;6.53;;;8.90;99.90;;;;;;5031426;28;20072;-72
2022/01/02 11:17:42;;;;;;;7.03;6.32;;;8.90;99.90;;;;;;5030666;28;20124;-72
2022/01/02 11:20:11;;;;;;;8.55;6.15;;;9.00;99.90;;;;;;5031053;28;20033;-71
2022/01/02 11:22:44;;;;;;;7.78;6.13;;;9.10;99.90;;;;;;5025975;28;20033;-71
2022/01/02 11:25:32;;;;;;;6.95;5.93;;;9.10;99.90;;;;;;5011576;28;20076;-71
2022/01/02 11:28:08;;;;;;;8.75;6.00;;;9.30;99.90;;;;;;5029988;28;20032;-72
2022/01/02 11:30:36;;;;;;;8.45;6.53;;;9.50;99.90;;;;;;5034203;28;20496;-71
2022/01/02 11:33:12;;;;;;;6.72;5.97;;;9.50;99.90;;;;;;5032413;28;20510;-72
2022/01/02 11:35:42;;;;;;;8.75;7.82;;;9.80;99.90;;;;;;5040631;28;20106;-72
2022/01/02 11:38:08;;;;;;;7.45;6.07;;;9.80;99.90;;;;;;5042230;28;20018;-72
2022/01/02 11:41:09;;;;;;;9.18;6.57;;;9.70;99.90;;;;;;5029737;28;20021;-71
2022/01/02 11:43:46;;;;;;;8.02;6.78;;;9.70;99.90;;;;;;4911663;29;20048;-72
2022/01/02 11:46:30;;;;;;;10.13;6.60;;;9.60;99.90;;;;;;5017621;28;20496;-73
2022/01/02 11:49:05;;;;;;;8.07;6.78;;;9.40;99.90;;;;;;5040112;28;20043;-76
2022/01/02 11:51:52;;;;;;;8.75;7.50;;;9.30;99.90;;;;;;5040914;28;20117;-75
2022/01/02 11:54:29;;;;;;;11.55;8.65;;;9.40;99.90;;;;;;5043149;28;20494;-74
2022/01/02 11:57:01;;;;;;;11.50;8.10;;;9.30;99.90;;;;;;5023304;28;20074;-74
2022/01/02 11:59:38;;;;;;;11.13;8.55;;;9.30;99.90;;;;;;5034552;28;20025;-78
2022/01/02 12:02:27;;;;;;;9.00;7.85;;;9.20;99.90;;;;;;5038459;28;20032;-77
2022/01/02 12:05:03;;;;;;;8.73;7.72;;;9.30;99.90;;;;;;5022056;28;20049;-77
2022/01/02 12:07:37;;;;;;;8.02;7.10;;;9.60;99.90;;;;;;5035663;28;20199;-76
2022/01/02 12:10:15;;;;;;;8.32;6.95;;;9.80;99.90;;;;;;5059833;28;20529;-77
2022/01/02 12:12:59;;;;;;;8.63;7.50;;;9.90;99.90;;;;;;5050680;28;20093;-77
2022/01/02 12:15:30;;;;;;;8.10;7.25;;;9.90;99.90;;;;;;5046160;28;20059;-78
2022/01/02 12:18:10;;;;;;;9.43;7.82;;;9.70;99.90;;;;;;5034477;28;20033;-75
2022/01/02 12:20:56;;;;;;;9.25;7.95;;;9.80;99.90;;;;;;5054051;28;20044;-76
2022/01/02 12:23:33;;;;;;;10.60;8.40;;;9.90;99.90;;;;;;5038430;28;20519;-76
2022/01/02 12:26:06;;;;;;;17.48;9.38;;;10.30;99.90;;;;;;5034058;28;20053;-78
2022/01/02 12:28:46;;;;;;;7.88;7.10;;;10.50;99.90;;;;;;5033980;28;20044;-77
2022/01/02 12:31:15;;;;;;;9.90;7.05;;;10.50;99.90;;;;;;5037443;28;20034;-78
2022/01/02 12:33:41;;;;;;;9.93;6.25;;;10.70;99.90;;;;;;5052845;28;20029;-76
2022/01/02 12:36:10;;;;;;;8.90;6.78;;;11.00;99.90;;;;;;5054737;28;20032;-74
2022/01/02 12:39:08;;;;;;;17.65;12.15;;;11.10;99.90;;;;;;5044137;28;20025;-77
2022/01/02 12:41:36;;;;;;;13.00;9.02;;;11.50;99.90;;;;;;5018063;28;20036;-77
2022/01/02 12:44:15;;;;;;;4.43;3.50;;;11.60;99.90;;;;;;5036542;28;20025;-79
2022/01/02 12:46:49;;;;;;;4.40;2.90;;;11.90;99.90;;;;;;5036221;28;20041;-78
2022/01/02 12:49:18;;;;;;;2.13;1.90;;;12.50;99.90;;;;;;5040080;28;20041;-76
2022/01/02 12:51:47;;;;;;;3.28;1.30;;;13.00;99.90;;;;;;5041897;28;20052;-77
2022/01/02 12:54:18;;;;;;;2.65;1.10;;;13.60;99.90;;;;;;5032399;28;20049;-77
2022/01/02 12:56:49;;;;;;;3.45;1.30;;;14.10;99.90;;;;;;5031166;28;20029;-76
2022/01/02 12:59:32;;;;;;;3.25;1.20;;;14.20;99.90;;;;;;5037761;28;20034;-77
2022/01/02 13:02:10;;;;;;;1.63;1.30;;;14.30;99.90;;;;;;5037379;28;20025;-77